sensor_id;sensor_type;location;lat;lon;timestamp;pressure;altitude;pressure_sealevel;temperature;humidity
49072;BME280;52656;52.610;10.236;2023-05-11T00:02:13;100921.75;;;12.45;88.34
49072;BME280;52656;52.610;10.236;2023-05-11T00:04:39;100920.00;;;12.44;88.05
49072;BME280;52656;52.610;10.236;2023-05-11T00:07:04;100921.00;;;12.41;89.11
49072;BME280;52656;52.610;10.236;2023-05-11T00:09:29;100919.22;;;12.42;88.37
49072;BME280;52656;52.610;10.236;2023-05-11T00:11:55;100921.09;;;12.40;88.76
49072;BME280;52656;52.610;10.236;2023-05-11T00:14:20;100918.47;;;12.38;87.60
49072;BME280;52656;52.610;10.236;2023-05-11T00:16:45;100919.50;;;12.36;88.48
49072;BME280;52656;52.610;10.236;2023-05-11T00:19:10;100920.41;;;12.35;87.59
49072;BME280;52656;52.610;10.236;2023-05-11T00:21:36;100924.84;;;12.34;87.39
49072;BME280;52656;52.610;10.236;2023-05-11T00:24:01;100918.63;;;12.35;87.15
49072;BME280;52656;52.610;10.236;2023-05-11T00:26:26;100920.56;;;12.32;88.14
49072;BME280;52656;52.610;10.236;2023-05-11T00:28:52;100925.88;;;12.32;87.43
49072;BME280;52656;52.610;10.236;2023-05-11T00:31:17;100924.06;;;12.32;87.36
49072;BME280;52656;52.610;10.236;2023-05-11T00:33:42;100923.06;;;12.35;87.46
49072;BME280;52656;52.610;10.236;2023-05-11T00:36:07;100923.00;;;12.36;88.62
49072;BME280;52656;52.610;10.236;2023-05-11T00:38:33;100919.34;;;12.39;87.22
49072;BME280;52656;52.610;10.236;2023-05-11T00:41:00;100920.94;;;12.43;86.83
49072;BME280;52656;52.610;10.236;2023-05-11T00:43:25;100929.59;;;12.48;87.38
49072;BME280;52656;52.610;10.236;2023-05-11T00:45:51;100928.59;;;12.51;85.86
49072;BME280;52656;52.610;10.236;2023-05-11T00:48:17;100924.06;;;12.53;86.08
49072;BME280;52656;52.610;10.236;2023-05-11T00:50:42;100921.41;;;12.53;87.77
49072;BME280;52656;52.610;10.236;2023-05-11T00:53:08;100929.16;;;12.57;86.52
49072;BME280;52656;52.610;10.236;2023-05-11T00:55:33;100927.31;;;12.59;86.31
49072;BME280;52656;52.610;10.236;2023-05-11T00:57:58;100926.50;;;12.57;86.35
49072;BME280;52656;52.610;10.236;2023-05-11T01:00:24;100930.19;;;12.55;87.32
49072;BME280;52656;52.610;10.236;2023-05-11T01:02:50;100923.16;;;12.54;86.68
49072;BME280;52656;52.610;10.236;2023-05-11T01:05:15;100923.22;;;12.52;86.53
49072;BME280;52656;52.610;10.236;2023-05-11T01:07:52;100919.69;;;12.52;86.46
49072;BME280;52656;52.610;10.236;2023-05-11T01:13:07;100928.47;;;12.54;86.38
49072;BME280;52656;52.610;10.236;2023-05-11T01:15:47;100926.50;;;12.57;86.08
49072;BME280;52656;52.610;10.236;2023-05-11T01:20:39;100919.34;;;12.59;87.86
49072;BME280;52656;52.610;10.236;2023-05-11T01:23:09;100924.50;;;12.62;86.99
49072;BME280;52656;52.610;10.236;2023-05-11T01:26:04;100928.75;;;12.66;86.79
49072;BME280;52656;52.610;10.236;2023-05-11T01:28:52;100928.63;;;12.69;86.60
49072;BME280;52656;52.610;10.236;2023-05-11T01:31:29;100928.50;;;12.73;86.17
49072;BME280;52656;52.610;10.236;2023-05-11T01:33:57;100924.91;;;12.74;86.14
49072;BME280;52656;52.610;10.236;2023-05-11T01:36:29;100925.66;;;12.76;86.40
49072;BME280;52656;52.610;10.236;2023-05-11T01:39:00;100926.47;;;12.78;86.47
49072;BME280;52656;52.610;10.236;2023-05-11T01:41:28;100928.19;;;12.79;86.73
49072;BME280;52656;52.610;10.236;2023-05-11T01:43:57;100931.72;;;12.79;86.56
49072;BME280;52656;52.610;10.236;2023-05-11T01:46:25;100928.94;;;12.82;86.59
49072;BME280;52656;52.610;10.236;2023-05-11T01:48:53;100923.69;;;12.81;86.79
49072;BME280;52656;52.610;10.236;2023-05-11T01:51:23;100930.72;;;12.82;86.75
49072;BME280;52656;52.610;10.236;2023-05-11T01:53:50;100928.94;;;12.82;86.63
49072;BME280;52656;52.610;10.236;2023-05-11T01:56:19;100930.72;;;12.82;86.68
49072;BME280;52656;52.610;10.236;2023-05-11T01:58:46;100932.56;;;12.80;86.79
49072;BME280;52656;52.610;10.236;2023-05-11T02:01:15;100929.06;;;12.79;86.71
49072;BME280;52656;52.610;10.236;2023-05-11T02:03:41;100929.91;;;12.80;86.64
49072;BME280;52656;52.610;10.236;2023-05-11T02:06:09;100937.03;;;12.79;86.70
49072;BME280;52656;52.610;10.236;2023-05-11T02:08:36;100937.13;;;12.78;86.96
49072;BME280;52656;52.610;10.236;2023-05-11T02:11:04;100931.88;;;12.76;86.76
49072;BME280;52656;52.610;10.236;2023-05-11T02:13:32;100934.59;;;12.75;86.59
49072;BME280;52656;52.610;10.236;2023-05-11T02:15:59;100932.88;;;12.74;86.72
49072;BME280;52656;52.610;10.236;2023-05-11T02:18:27;100933.16;;;12.67;86.86
49072;BME280;52656;52.610;10.236;2023-05-11T02:20:53;100934.16;;;12.65;87.25
49072;BME280;52656;52.610;10.236;2023-05-11T02:23:21;100934.28;;;12.62;87.43
49072;BME280;52656;52.610;10.236;2023-05-11T02:25:50;100936.22;;;12.58;87.48
49072;BME280;52656;52.610;10.236;2023-05-11T02:28:16;100935.56;;;12.53;87.82
49072;BME280;52656;52.610;10.236;2023-05-11T02:30:45;100942.88;;;12.48;88.15
49072;BME280;52656;52.610;10.236;2023-05-11T02:33:16;100939.47;;;12.44;88.09
49072;BME280;52656;52.610;10.236;2023-05-11T02:35:42;100940.47;;;12.42;88.50
49072;BME280;52656;52.610;10.236;2023-05-11T02:38:09;100936.13;;;12.39;88.95
49072;BME280;52656;52.610;10.236;2023-05-11T02:40:45;100941.41;;;12.41;88.89
49072;BME280;52656;52.610;10.236;2023-05-11T02:43:12;100941.44;;;12.39;89.21
49072;BME280;52656;52.610;10.236;2023-05-11T02:45:42;100943.25;;;12.39;88.71
49072;BME280;52656;52.610;10.236;2023-05-11T02:48:11;100944.19;;;12.38;88.63
49072;BME280;52656;52.610;10.236;2023-05-11T02:50:41;100942.81;;;12.50;88.15
49072;BME280;52656;52.610;10.236;2023-05-11T02:53:12;100944.78;;;12.44;88.58
49072;BME280;52656;52.610;10.236;2023-05-11T02:55:39;100942.38;;;12.38;88.88
49072;BME280;52656;52.610;10.236;2023-05-11T02:58:04;100942.59;;;12.34;89.40
49072;BME280;52656;52.610;10.236;2023-05-11T03:00:30;100936.41;;;12.33;89.23
49072;BME280;52656;52.610;10.236;2023-05-11T03:02:55;100935.56;;;12.33;89.17
49072;BME280;52656;52.610;10.236;2023-05-11T03:05:21;100940.09;;;12.31;89.63
49072;BME280;52656;52.610;10.236;2023-05-11T03:07:46;100939.19;;;12.30;89.70
49072;BME280;52656;52.610;10.236;2023-05-11T03:10:11;100941.84;;;12.30;90.05
49072;BME280;52656;52.610;10.236;2023-05-11T03:12:38;100937.44;;;12.31;89.79
49072;BME280;52656;52.610;10.236;2023-05-11T03:15:03;100945.03;;;12.38;89.20
49072;BME280;52656;52.610;10.236;2023-05-11T03:17:29;100945.13;;;12.37;89.03
49072;BME280;52656;52.610;10.236;2023-05-11T03:19:57;100944.91;;;12.41;89.18
49072;BME280;52656;52.610;10.236;2023-05-11T03:22:22;100945.91;;;12.39;89.60
49072;BME280;52656;52.610;10.236;2023-05-11T03:24:48;100939.53;;;12.43;89.33
49072;BME280;52656;52.610;10.236;2023-05-11T03:27:15;100941.72;;;12.33;89.91
49072;BME280;52656;52.610;10.236;2023-05-11T03:29:42;100944.31;;;12.35;89.91
49072;BME280;52656;52.610;10.236;2023-05-11T03:32:09;100939.88;;;12.35;89.98
49072;BME280;52656;52.610;10.236;2023-05-11T03:34:35;100944.19;;;12.38;89.93
49072;BME280;52656;52.610;10.236;2023-05-11T03:37:00;100942.34;;;12.40;89.29
49072;BME280;52656;52.610;10.236;2023-05-11T03:39:28;100943.91;;;12.44;89.57
49072;BME280;52656;52.610;10.236;2023-05-11T03:41:55;100942.81;;;12.50;89.40
49072;BME280;52656;52.610;10.236;2023-05-11T03:44:22;100946.19;;;12.53;89.46
49072;BME280;52656;52.610;10.236;2023-05-11T03:46:49;100941.56;;;12.58;89.12
49072;BME280;52656;52.610;10.236;2023-05-11T03:49:15;100945.00;;;12.60;89.29
49072;BME280;52656;52.610;10.236;2023-05-11T03:51:41;100937.94;;;12.59;88.81
49072;BME280;52656;52.610;10.236;2023-05-11T03:54:06;100937.78;;;12.62;88.66
49072;BME280;52656;52.610;10.236;2023-05-11T03:56:36;100935.88;;;12.66;88.03
49072;BME280;52656;52.610;10.236;2023-05-11T03:59:02;100944.00;;;12.63;88.22
49072;BME280;52656;52.610;10.236;2023-05-11T04:01:29;100944.69;;;12.66;88.35
49072;BME280;52656;52.610;10.236;2023-05-11T04:03:55;100938.88;;;12.58;88.99
49072;BME280;52656;52.610;10.236;2023-05-11T04:06:21;100943.41;;;12.56;89.17
49072;BME280;52656;52.610;10.236;2023-05-11T04:08:46;100941.97;;;12.47;89.88
49072;BME280;52656;52.610;10.236;2023-05-11T04:11:11;100943.47;;;12.55;89.45
49072;BME280;52656;52.610;10.236;2023-05-11T04:13:37;100947.94;;;12.54;89.71
49072;BME280;52656;52.610;10.236;2023-05-11T04:16:02;100947.44;;;12.65;89.22
49072;BME280;52656;52.610;10.236;2023-05-11T04:18:27;100944.13;;;12.60;89.39
49072;BME280;52656;52.610;10.236;2023-05-11T04:20:53;100943.84;;;12.66;88.94
49072;BME280;52656;52.610;10.236;2023-05-11T04:23:18;100942.25;;;12.62;89.34
49072;BME280;52656;52.610;10.236;2023-05-11T04:25:44;100948.38;;;12.64;89.51
49072;BME280;52656;52.610;10.236;2023-05-11T04:28:09;100947.31;;;12.68;89.54
49072;BME280;52656;52.610;10.236;2023-05-11T04:30:34;100944.44;;;12.73;89.29
49072;BME280;52656;52.610;10.236;2023-05-11T04:33:00;100946.94;;;12.76;88.95
49072;BME280;52656;52.610;10.236;2023-05-11T04:35:25;100947.84;;;12.76;89.26
49072;BME280;52656;52.610;10.236;2023-05-11T04:37:51;100948.81;;;12.74;89.23
49072;BME280;52656;52.610;10.236;2023-05-11T04:40:16;100947.84;;;12.76;89.14
49072;BME280;52656;52.610;10.236;2023-05-11T04:42:41;100950.13;;;12.84;88.92
49072;BME280;52656;52.610;10.236;2023-05-11T04:45:07;100957.97;;;12.87;88.72
49072;BME280;52656;52.610;10.236;2023-05-11T04:47:32;100953.63;;;12.84;88.84
49072;BME280;52656;52.610;10.236;2023-05-11T04:49:58;100953.06;;;12.96;88.20
49072;BME280;52656;52.610;10.236;2023-05-11T04:52:23;100950.97;;;13.03;87.87
49072;BME280;52656;52.610;10.236;2023-05-11T04:54:48;100963.19;;;13.07;87.79
49072;BME280;52656;52.610;10.236;2023-05-11T04:57:13;100962.13;;;13.11;87.60
49072;BME280;52656;52.610;10.236;2023-05-11T04:59:39;100955.94;;;13.11;87.73
49072;BME280;52656;52.610;10.236;2023-05-11T05:02:04;100959.69;;;13.07;87.60
49072;BME280;52656;52.610;10.236;2023-05-11T05:04:29;100962.28;;;13.08;87.16
49072;BME280;52656;52.610;10.236;2023-05-11T05:06:55;100959.41;;;13.13;87.40
49072;BME280;52656;52.610;10.236;2023-05-11T05:09:20;100964.34;;;13.20;86.72
49072;BME280;52656;52.610;10.236;2023-05-11T05:11:45;100965.50;;;13.15;87.29
49072;BME280;52656;52.610;10.236;2023-05-11T05:14:10;100966.53;;;13.31;86.23
49072;BME280;52656;52.610;10.236;2023-05-11T05:16:36;100964.72;;;13.32;86.34
49072;BME280;52656;52.610;10.236;2023-05-11T05:19:01;100969.19;;;13.31;86.51
49072;BME280;52656;52.610;10.236;2023-05-11T05:21:26;100971.31;;;13.42;85.92
49072;BME280;52656;52.610;10.236;2023-05-11T05:23:52;100964.13;;;13.44;85.91
49072;BME280;52656;52.610;10.236;2023-05-11T05:26:17;100962.19;;;13.47;85.94
49072;BME280;52656;52.610;10.236;2023-05-11T05:28:42;100960.16;;;13.53;85.57
49072;BME280;52656;52.610;10.236;2023-05-11T05:31:07;100966.28;;;13.55;85.56
49072;BME280;52656;52.610;10.236;2023-05-11T05:33:33;100975.78;;;13.41;86.31
49072;BME280;52656;52.610;10.236;2023-05-11T05:35:58;100979.22;;;13.43;86.14
49072;BME280;52656;52.610;10.236;2023-05-11T05:38:23;100971.03;;;13.48;85.75
49072;BME280;52656;52.610;10.236;2023-05-11T05:40:48;100974.50;;;13.50;85.74
49072;BME280;52656;52.610;10.236;2023-05-11T05:43:14;100976.19;;;13.51;85.65
49072;BME280;52656;52.610;10.236;2023-05-11T05:45:39;100979.00;;;13.48;85.85
49072;BME280;52656;52.610;10.236;2023-05-11T05:48:05;100987.50;;;13.37;85.91
49072;BME280;52656;52.610;10.236;2023-05-11T05:50:31;100982.28;;;13.36;86.23
49072;BME280;52656;52.610;10.236;2023-05-11T05:52:56;100985.34;;;13.45;85.79
49072;BME280;52656;52.610;10.236;2023-05-11T05:55:21;100993.59;;;13.39;86.22
49072;BME280;52656;52.610;10.236;2023-05-11T05:57:48;100989.81;;;13.45;86.16
49072;BME280;52656;52.610;10.236;2023-05-11T06:00:13;100995.91;;;13.47;85.69
49072;BME280;52656;52.610;10.236;2023-05-11T06:02:38;100996.84;;;13.46;86.08
49072;BME280;52656;52.610;10.236;2023-05-11T06:05:04;101008.22;;;13.50;86.16
49072;BME280;52656;52.610;10.236;2023-05-11T06:07:29;101005.25;;;13.56;85.69
49072;BME280;52656;52.610;10.236;2023-05-11T06:09:55;101002.16;;;13.84;84.15
49072;BME280;52656;52.610;10.236;2023-05-11T06:12:20;100993.47;;;13.97;83.51
49072;BME280;52656;52.610;10.236;2023-05-11T06:14:45;101002.19;;;14.01;83.20
49072;BME280;52656;52.610;10.236;2023-05-11T06:17:11;101004.97;;;13.98;83.88
49072;BME280;52656;52.610;10.236;2023-05-11T06:19:36;101004.78;;;14.20;82.87
49072;BME280;52656;52.610;10.236;2023-05-11T06:22:02;101001.97;;;14.23;83.24
49072;BME280;52656;52.610;10.236;2023-05-11T06:24:28;101009.59;;;13.77;84.36
49072;BME280;52656;52.610;10.236;2023-05-11T06:26:53;101003.66;;;14.07;84.10
49072;BME280;52656;52.610;10.236;2023-05-11T06:29:18;100998.25;;;14.26;83.73
49072;BME280;52656;52.610;10.236;2023-05-11T06:31:46;100995.13;;;14.35;82.84
49072;BME280;52656;52.610;10.236;2023-05-11T06:34:16;101003.22;;;14.33;83.03
49072;BME280;52656;52.610;10.236;2023-05-11T06:36:43;101003.22;;;14.33;82.76
49072;BME280;52656;52.610;10.236;2023-05-11T06:39:08;100999.69;;;14.50;82.25
49072;BME280;52656;52.610;10.236;2023-05-11T06:41:33;100993.88;;;14.59;81.83
49072;BME280;52656;52.610;10.236;2023-05-11T06:43:59;100997.16;;;14.64;81.66
49072;BME280;52656;52.610;10.236;2023-05-11T06:46:24;100997.00;;;14.67;81.42
49072;BME280;52656;52.610;10.236;2023-05-11T06:48:50;100993.38;;;14.68;81.45
49072;BME280;52656;52.610;10.236;2023-05-11T06:51:16;100991.91;;;14.63;81.81
49072;BME280;52656;52.610;10.236;2023-05-11T06:53:41;100996.69;;;14.73;81.21
49072;BME280;52656;52.610;10.236;2023-05-11T06:56:06;100998.50;;;14.73;81.37
49072;BME280;52656;52.610;10.236;2023-05-11T06:58:32;100989.84;;;14.85;81.39
49072;BME280;52656;52.610;10.236;2023-05-11T07:00:57;100994.94;;;14.90;81.29
49072;BME280;52656;52.610;10.236;2023-05-11T07:03:22;100994.72;;;14.60;82.56
49072;BME280;52656;52.610;10.236;2023-05-11T07:05:48;101009.00;;;14.41;83.46
49072;BME280;52656;52.610;10.236;2023-05-11T07:08:13;101000.47;;;14.17;83.69
49072;BME280;52656;52.610;10.236;2023-05-11T07:10:38;100999.69;;;14.33;83.62
49072;BME280;52656;52.610;10.236;2023-05-11T07:13:03;101013.81;;;14.17;84.37
49072;BME280;52656;52.610;10.236;2023-05-11T07:15:29;101006.09;;;14.29;84.56
49072;BME280;52656;52.610;10.236;2023-05-11T07:17:54;101003.91;;;14.37;84.15
49072;BME280;52656;52.610;10.236;2023-05-11T07:20:20;101004.25;;;14.31;84.29
49072;BME280;52656;52.610;10.236;2023-05-11T07:22:45;101010.25;;;14.34;83.80
49072;BME280;52656;52.610;10.236;2023-05-11T07:25:10;101015.41;;;14.03;85.05
49072;BME280;52656;52.610;10.236;2023-05-11T07:27:36;101010.72;;;14.08;84.93
49072;BME280;52656;52.610;10.236;2023-05-11T07:30:02;101010.34;;;14.33;84.30
49072;BME280;52656;52.610;10.236;2023-05-11T07:32:28;101011.06;;;14.36;84.33
49072;BME280;52656;52.610;10.236;2023-05-11T07:34:53;101013.72;;;14.36;83.77
49072;BME280;52656;52.610;10.236;2023-05-11T07:37:18;101018.56;;;14.45;83.46
49072;BME280;52656;52.610;10.236;2023-05-11T07:39:44;101015.19;;;14.59;83.13
49072;BME280;52656;52.610;10.236;2023-05-11T07:42:09;101006.72;;;14.68;82.73
49072;BME280;52656;52.610;10.236;2023-05-11T07:44:34;101012.78;;;14.72;82.34
49072;BME280;52656;52.610;10.236;2023-05-11T07:46:59;101011.09;;;14.69;82.54
49072;BME280;52656;52.610;10.236;2023-05-11T07:49:25;101012.69;;;14.73;82.17
49072;BME280;52656;52.610;10.236;2023-05-11T07:51:50;101016.06;;;14.60;82.71
49072;BME280;52656;52.610;10.236;2023-05-11T07:54:16;101012.69;;;14.73;83.13
49072;BME280;52656;52.610;10.236;2023-05-11T07:56:41;101007.81;;;14.82;82.72
49072;BME280;52656;52.610;10.236;2023-05-11T07:59:07;101019.25;;;14.84;82.24
49072;BME280;52656;52.610;10.236;2023-05-11T08:01:32;101007.25;;;14.92;82.02
49072;BME280;52656;52.610;10.236;2023-05-11T08:03:57;101019.19;;;14.85;81.97
49072;BME280;52656;52.610;10.236;2023-05-11T08:06:23;101015.16;;;14.94;81.62
49072;BME280;52656;52.610;10.236;2023-05-11T08:08:48;101008.94;;;14.93;82.25
49072;BME280;52656;52.610;10.236;2023-05-11T08:11:13;101011.88;;;14.89;82.62
49072;BME280;52656;52.610;10.236;2023-05-11T08:13:39;101015.84;;;14.97;81.94
49072;BME280;52656;52.610;10.236;2023-05-11T08:16:04;101016.72;;;14.98;81.57
49072;BME280;52656;52.610;10.236;2023-05-11T08:18:29;101020.41;;;14.95;81.91
49072;BME280;52656;52.610;10.236;2023-05-11T08:20:55;101024.06;;;15.10;81.31
49072;BME280;52656;52.610;10.236;2023-05-11T08:23:21;101015.00;;;14.97;82.41
49072;BME280;52656;52.610;10.236;2023-05-11T08:25:52;101014.66;;;15.03;81.64
49072;BME280;52656;52.610;10.236;2023-05-11T08:28:18;101012.06;;;15.02;81.64
49072;BME280;52656;52.610;10.236;2023-05-11T08:30:45;101017.06;;;15.08;81.44
49072;BME280;52656;52.610;10.236;2023-05-11T08:33:11;101012.97;;;15.18;81.21
49072;BME280;52656;52.610;10.236;2023-05-11T08:35:39;101020.13;;;15.17;81.18
49072;BME280;52656;52.610;10.236;2023-05-11T08:38:05;101020.19;;;15.16;81.24
49072;BME280;52656;52.610;10.236;2023-05-11T08:40:30;101015.31;;;15.24;81.01
49072;BME280;52656;52.610;10.236;2023-05-11T08:42:58;101019.88;;;15.22;81.12
49072;BME280;52656;52.610;10.236;2023-05-11T08:45:25;101014.53;;;15.38;80.29
49072;BME280;52656;52.610;10.236;2023-05-11T08:47:52;101013.44;;;15.26;80.29
49072;BME280;52656;52.610;10.236;2023-05-11T08:50:17;101019.06;;;15.20;80.97
49072;BME280;52656;52.610;10.236;2023-05-11T08:52:43;101022.97;;;15.30;80.68
49072;BME280;52656;52.610;10.236;2023-05-11T08:55:08;101023.72;;;15.16;81.30
49072;BME280;52656;52.610;10.236;2023-05-11T08:57:34;101024.16;;;15.09;80.60
49072;BME280;52656;52.610;10.236;2023-05-11T09:00:01;101024.50;;;15.18;80.63
49072;BME280;52656;52.610;10.236;2023-05-11T09:02:27;101026.47;;;15.15;80.70
49072;BME280;52656;52.610;10.236;2023-05-11T09:04:53;101027.88;;;15.22;80.95
49072;BME280;52656;52.610;10.236;2023-05-11T09:07:18;101022.53;;;15.22;80.60
49072;BME280;52656;52.610;10.236;2023-05-11T09:09:45;101027.22;;;15.50;79.73
49072;BME280;52656;52.610;10.236;2023-05-11T09:12:11;101025.22;;;15.38;80.04
49072;BME280;52656;52.610;10.236;2023-05-11T09:14:37;101035.34;;;14.82;83.05
49072;BME280;52656;52.610;10.236;2023-05-11T09:17:02;101026.63;;;14.96;82.90
49072;BME280;52656;52.610;10.236;2023-05-11T09:19:28;101025.22;;;15.22;82.19
49072;BME280;52656;52.610;10.236;2023-05-11T09:21:53;101010.06;;;15.38;81.48
49072;BME280;52656;52.610;10.236;2023-05-11T09:24:19;101007.31;;;15.56;80.54
49072;BME280;52656;52.610;10.236;2023-05-11T09:26:44;101014.13;;;15.45;81.15
49072;BME280;52656;52.610;10.236;2023-05-11T09:29:10;101019.72;;;15.41;80.94
49072;BME280;52656;52.610;10.236;2023-05-11T09:31:46;101025.38;;;15.35;82.17
49072;BME280;52656;52.610;10.236;2023-05-11T09:34:19;101028.47;;;15.43;81.84
49072;BME280;52656;52.610;10.236;2023-05-11T09:36:55;101035.94;;;15.05;83.83
49072;BME280;52656;52.610;10.236;2023-05-11T09:39:32;101037.31;;;14.79;83.43
49072;BME280;52656;52.610;10.236;2023-05-11T09:42:30;101032.84;;;15.12;82.27
49072;BME280;52656;52.610;10.236;2023-05-11T09:44:55;101032.78;;;15.30;81.32
49072;BME280;52656;52.610;10.236;2023-05-11T09:47:20;101034.19;;;15.68;79.56
49072;BME280;52656;52.610;10.236;2023-05-11T09:49:49;101028.75;;;15.22;81.74
49072;BME280;52656;52.610;10.236;2023-05-11T09:52:15;101027.00;;;15.53;80.89
49072;BME280;52656;52.610;10.236;2023-05-11T09:54:53;101032.56;;;15.82;80.11
49072;BME280;52656;52.610;10.236;2023-05-11T09:57:29;101028.75;;;16.02;80.06
49072;BME280;52656;52.610;10.236;2023-05-11T09:59:56;101029.31;;;16.22;78.35
49072;BME280;52656;52.610;10.236;2023-05-11T10:02:27;101027.22;;;15.82;79.13
49072;BME280;52656;52.610;10.236;2023-05-11T10:04:55;101015.59;;;15.83;78.39
49072;BME280;52656;52.610;10.236;2023-05-11T10:07:30;101018.94;;;16.32;76.45
49072;BME280;52656;52.610;10.236;2023-05-11T10:09:57;101013.16;;;16.40;76.63
49072;BME280;52656;52.610;10.236;2023-05-11T10:12:24;101011.78;;;16.33;76.13
49072;BME280;52656;52.610;10.236;2023-05-11T10:14:53;101018.41;;;16.25;76.35
49072;BME280;52656;52.610;10.236;2023-05-11T10:17:19;101017.81;;;16.81;75.00
49072;BME280;52656;52.610;10.236;2023-05-11T10:19:45;101017.22;;;17.33;72.81
49072;BME280;52656;52.610;10.236;2023-05-11T10:22:10;101019.44;;;17.12;74.01
49072;BME280;52656;52.610;10.236;2023-05-11T10:24:36;101022.63;;;16.90;73.23
49072;BME280;52656;52.610;10.236;2023-05-11T10:27:02;101012.19;;;16.85;73.71
49072;BME280;52656;52.610;10.236;2023-05-11T10:29:27;101011.50;;;16.82;73.37
49072;BME280;52656;52.610;10.236;2023-05-11T10:31:56;101006.56;;;17.04;71.98
49072;BME280;52656;52.610;10.236;2023-05-11T10:34:23;101002.63;;;16.81;71.96
49072;BME280;52656;52.610;10.236;2023-05-11T10:36:51;101008.91;;;16.80;72.57
49072;BME280;52656;52.610;10.236;2023-05-11T10:39:16;101008.16;;;16.48;73.78
49072;BME280;52656;52.610;10.236;2023-05-11T10:41:51;101010.56;;;16.52;73.45
49072;BME280;52656;52.610;10.236;2023-05-11T11:01:36;101001.66;;;17.25;71.63
49072;BME280;52656;52.610;10.236;2023-05-11T11:04:04;100996.03;;;17.71;69.35
49072;BME280;52656;52.610;10.236;2023-05-11T11:06:38;100996.06;;;17.84;67.88
49072;BME280;52656;52.610;10.236;2023-05-11T11:09:10;100995.63;;;18.04;66.72
49072;BME280;52656;52.610;10.236;2023-05-11T11:11:40;100995.53;;;18.18;66.52
49072;BME280;52656;52.610;10.236;2023-05-11T11:14:08;100997.97;;;17.55;69.09
49072;BME280;52656;52.610;10.236;2023-05-11T11:16:35;100998.31;;;17.21;70.61
49072;BME280;52656;52.610;10.236;2023-05-11T11:21:55;100999.22;;;17.63;69.62
49072;BME280;52656;52.610;10.236;2023-05-11T11:27:01;100981.72;;;17.85;68.80
49072;BME280;52656;52.610;10.236;2023-05-11T11:29:28;100982.66;;;18.11;67.61
49072;BME280;52656;52.610;10.236;2023-05-11T11:31:53;100978.53;;;18.32;66.02
49072;BME280;52656;52.610;10.236;2023-05-11T11:44:40;100975.13;;;19.43;63.02
49072;BME280;52656;52.610;10.236;2023-05-11T11:47:17;100974.25;;;19.79;62.90
49072;BME280;52656;52.610;10.236;2023-05-11T11:49:46;100979.75;;;19.78;61.27
49072;BME280;52656;52.610;10.236;2023-05-11T11:52:15;100967.09;;;19.91;60.60
49072;BME280;52656;52.610;10.236;2023-05-11T11:55:00;100971.13;;;19.86;60.71
49072;BME280;52656;52.610;10.236;2023-05-11T12:00:03;100965.59;;;18.90;63.24
49072;BME280;52656;52.610;10.236;2023-05-11T12:02:30;100960.75;;;18.82;63.72
49072;BME280;52656;52.610;10.236;2023-05-11T12:05:15;100964.28;;;18.95;64.48
49072;BME280;52656;52.610;10.236;2023-05-11T12:07:48;100962.53;;;19.07;64.18
49072;BME280;52656;52.610;10.236;2023-05-11T12:10:18;100969.03;;;19.28;64.06
49072;BME280;52656;52.610;10.236;2023-05-11T12:12:45;100976.13;;;19.42;62.77
49072;BME280;52656;52.610;10.236;2023-05-11T12:15:28;100969.75;;;19.43;62.63
49072;BME280;52656;52.610;10.236;2023-05-11T12:17:54;100967.81;;;19.58;61.94
49072;BME280;52656;52.610;10.236;2023-05-11T12:20:20;100963.78;;;19.64;61.83
49072;BME280;52656;52.610;10.236;2023-05-11T12:22:47;100963.22;;;19.71;62.53
49072;BME280;52656;52.610;10.236;2023-05-11T12:25:14;100957.44;;;19.65;62.50
49072;BME280;52656;52.610;10.236;2023-05-11T12:27:48;100961.63;;;19.69;62.63
49072;BME280;52656;52.610;10.236;2023-05-11T12:30:28;100955.06;;;19.84;62.65
49072;BME280;52656;52.610;10.236;2023-05-11T12:32:53;100952.25;;;20.10;62.05
49072;BME280;52656;52.610;10.236;2023-05-11T12:35:24;100949.25;;;20.25;60.96
49072;BME280;52656;52.610;10.236;2023-05-11T12:37:50;100945.84;;;20.23;60.69
49072;BME280;52656;52.610;10.236;2023-05-11T12:40:16;100941.09;;;20.27;61.04
49072;BME280;52656;52.610;10.236;2023-05-11T12:42:51;100942.88;;;20.15;61.02
49072;BME280;52656;52.610;10.236;2023-05-11T12:45:17;100946.47;;;20.27;60.44
49072;BME280;52656;52.610;10.236;2023-05-11T12:47:45;100938.19;;;20.41;60.10
49072;BME280;52656;52.610;10.236;2023-05-11T12:50:11;100945.91;;;20.57;59.40
49072;BME280;52656;52.610;10.236;2023-05-11T12:52:37;100943.47;;;20.76;58.64
49072;BME280;52656;52.610;10.236;2023-05-11T12:55:02;100940.38;;;20.47;59.26
49072;BME280;52656;52.610;10.236;2023-05-11T12:57:29;100931.47;;;20.47;59.62
49072;BME280;52656;52.610;10.236;2023-05-11T13:00:14;100934.28;;;20.45;59.75
49072;BME280;52656;52.610;10.236;2023-05-11T13:05:12;100921.69;;;20.35;60.16
49072;BME280;52656;52.610;10.236;2023-05-11T13:07:38;100921.94;;;20.08;60.78
49072;BME280;52656;52.610;10.236;2023-05-11T13:10:04;100920.31;;;19.94;61.30
49072;BME280;52656;52.610;10.236;2023-05-11T13:12:29;100916.78;;;19.69;62.28
49072;BME280;52656;52.610;10.236;2023-05-11T13:15:05;100920.97;;;19.49;62.93
49072;BME280;52656;52.610;10.236;2023-05-11T13:17:33;100910.28;;;19.24;64.17
49072;BME280;52656;52.610;10.236;2023-05-11T13:20:21;100918.84;;;19.05;64.80
49072;BME280;52656;52.610;10.236;2023-05-11T13:23:07;100906.81;;;18.98;65.31
49072;BME280;52656;52.610;10.236;2023-05-11T13:25:49;100907.06;;;18.95;66.05